sensor_id;sensor_type;location;lat;lon;timestamp;pressure;altitude;pressure_sealevel;temperature
69007;BMP180;56061;51.748;19.620;2023-10-19T00:01:21;98457.00;;;0.30
69007;BMP180;56061;51.748;19.620;2023-10-19T00:03:54;98456.80;;;0.30
69007;BMP180;56061;51.748;19.620;2023-10-19T00:06:24;98454.60;;;0.40
69007;BMP180;56061;51.748;19.620;2023-10-19T00:08:50;98456.20;;;0.40
69007;BMP180;56061;51.748;19.620;2023-10-19T00:11:18;98451.00;;;0.40
69007;BMP180;56061;51.748;19.620;2023-10-19T00:13:48;98444.00;;;0.40
69007;BMP180;56061;51.748;19.620;2023-10-19T00:16:20;98444.60;;;0.40
69007;BMP180;56061;51.748;19.620;2023-10-19T00:18:54;98439.80;;;0.40
69007;BMP180;56061;51.748;19.620;2023-10-19T00:21:24;98446.80;;;0.36
69007;BMP180;56061;51.748;19.620;2023-10-19T00:23:58;98446.40;;;0.30
69007;BMP180;56061;51.748;19.620;2023-10-19T00:26:27;98441.60;;;0.30
69007;BMP180;56061;51.748;19.620;2023-10-19T00:28:55;98440.00;;;0.30
69007;BMP180;56061;51.748;19.620;2023-10-19T00:31:23;98429.00;;;0.30
69007;BMP180;56061;51.748;19.620;2023-10-19T00:33:50;98429.00;;;0.30
69007;BMP180;56061;51.748;19.620;2023-10-19T00:36:23;98415.20;;;0.30
69007;BMP180;56061;51.748;19.620;2023-10-19T00:38:51;98420.00;;;0.30
69007;BMP180;56061;51.748;19.620;2023-10-19T00:41:24;98412.60;;;0.30
69007;BMP180;56061;51.748;19.620;2023-10-19T00:43:55;98407.60;;;0.30
69007;BMP180;56061;51.748;19.620;2023-10-19T00:46:24;98401.80;;;0.30
69007;BMP180;56061;51.748;19.620;2023-10-19T00:51:29;98397.40;;;0.30
69007;BMP180;56061;51.748;19.620;2023-10-19T00:56:24;98394.60;;;0.30
69007;BMP180;56061;51.748;19.620;2023-10-19T01:01:40;98387.40;;;0.30
69007;BMP180;56061;51.748;19.620;2023-10-19T01:04:11;98384.20;;;0.36
69007;BMP180;56061;51.748;19.620;2023-10-19T01:06:46;98382.40;;;0.30
69007;BMP180;56061;51.748;19.620;2023-10-19T01:09:23;98374.40;;;0.30
69007;BMP180;56061;51.748;19.620;2023-10-19T01:11:53;98365.20;;;0.30
69007;BMP180;56061;51.748;19.620;2023-10-19T01:14:21;98362.60;;;0.30
69007;BMP180;56061;51.748;19.620;2023-10-19T01:16:54;98364.20;;;0.30
69007;BMP180;56061;51.748;19.620;2023-10-19T01:19:23;98359.00;;;0.30
69007;BMP180;56061;51.748;19.620;2023-10-19T01:21:50;98353.20;;;0.30
69007;BMP180;56061;51.748;19.620;2023-10-19T01:24:24;98357.20;;;0.20
69007;BMP180;56061;51.748;19.620;2023-10-19T01:27:08;98351.00;;;0.20
69007;BMP180;56061;51.748;19.620;2023-10-19T01:29:37;98354.60;;;0.20
69007;BMP180;56061;51.748;19.620;2023-10-19T01:32:06;98348.00;;;0.20
69007;BMP180;56061;51.748;19.620;2023-10-19T01:34:35;98348.20;;;0.20
69007;BMP180;56061;51.748;19.620;2023-10-19T01:37:01;98337.20;;;0.20
69007;BMP180;56061;51.748;19.620;2023-10-19T01:39:34;98339.00;;;0.20
69007;BMP180;56061;51.748;19.620;2023-10-19T01:42:04;98331.80;;;0.20
69007;BMP180;56061;51.748;19.620;2023-10-19T01:44:31;98327.60;;;0.20
69007;BMP180;56061;51.748;19.620;2023-10-19T01:46:57;98327.60;;;0.16
69007;BMP180;56061;51.748;19.620;2023-10-19T01:49:24;98326.60;;;0.18
69007;BMP180;56061;51.748;19.620;2023-10-19T01:51:54;98322.80;;;0.14
69007;BMP180;56061;51.748;19.620;2023-10-19T01:54:23;98323.00;;;0.14
69007;BMP180;56061;51.748;19.620;2023-10-19T01:56:52;98317.60;;;0.14
69007;BMP180;56061;51.748;19.620;2023-10-19T01:59:23;98313.00;;;0.18
69007;BMP180;56061;51.748;19.620;2023-10-19T02:01:56;98320.60;;;0.20
69007;BMP180;56061;51.748;19.620;2023-10-19T02:04:23;98312.20;;;0.20
69007;BMP180;56061;51.748;19.620;2023-10-19T02:06:50;98308.00;;;0.20
69007;BMP180;56061;51.748;19.620;2023-10-19T02:09:18;98299.00;;;0.30
69007;BMP180;56061;51.748;19.620;2023-10-19T02:11:54;98292.00;;;0.30
69007;BMP180;56061;51.748;19.620;2023-10-19T02:14:26;98292.80;;;0.30
69007;BMP180;56061;51.748;19.620;2023-10-19T02:16:55;98292.00;;;0.30
69007;BMP180;56061;51.748;19.620;2023-10-19T02:19:28;98293.60;;;0.30
69007;BMP180;56061;51.748;19.620;2023-10-19T02:21:58;98287.60;;;0.34
69007;BMP180;56061;51.748;19.620;2023-10-19T02:24:24;98284.80;;;0.40
69007;BMP180;56061;51.748;19.620;2023-10-19T02:26:54;98286.60;;;0.40
69007;BMP180;56061;51.748;19.620;2023-10-19T02:29:21;98276.80;;;0.42
69007;BMP180;56061;51.748;19.620;2023-10-19T02:31:53;98274.00;;;0.50
69007;BMP180;56061;51.748;19.620;2023-10-19T02:34:20;98272.60;;;0.50
69007;BMP180;56061;51.748;19.620;2023-10-19T02:36:46;98270.80;;;0.50
69007;BMP180;56061;51.748;19.620;2023-10-19T02:39:15;98262.00;;;0.50
69007;BMP180;56061;51.748;19.620;2023-10-19T02:41:45;98259.40;;;0.60
69007;BMP180;56061;51.748;19.620;2023-10-19T02:44:18;98256.40;;;0.60
69007;BMP180;56061;51.748;19.620;2023-10-19T02:46:53;98244.60;;;0.60
69007;BMP180;56061;51.748;19.620;2023-10-19T02:49:25;98240.80;;;0.68
69007;BMP180;56061;51.748;19.620;2023-10-19T02:51:53;98229.00;;;0.70
69007;BMP180;56061;51.748;19.620;2023-10-19T02:54:24;98222.40;;;0.70
69007;BMP180;56061;51.748;19.620;2023-10-19T02:56:54;98216.00;;;0.70
69007;BMP180;56061;51.748;19.620;2023-10-19T02:59:25;98214.60;;;0.68
69007;BMP180;56061;51.748;19.620;2023-10-19T03:01:54;98208.00;;;0.60
69007;BMP180;56061;51.748;19.620;2023-10-19T03:04:25;98203.00;;;0.60
69007;BMP180;56061;51.748;19.620;2023-10-19T03:06:51;98199.20;;;0.60
69007;BMP180;56061;51.748;19.620;2023-10-19T03:09:18;98195.80;;;0.60
69007;BMP180;56061;51.748;19.620;2023-10-19T03:11:53;98194.80;;;0.60
69007;BMP180;56061;51.748;19.620;2023-10-19T03:14:21;98196.00;;;0.60
69007;BMP180;56061;51.748;19.620;2023-10-19T03:16:51;98185.40;;;0.60
69007;BMP180;56061;51.748;19.620;2023-10-19T03:19:17;98177.00;;;0.60
69007;BMP180;56061;51.748;19.620;2023-10-19T03:21:43;98170.00;;;0.60
69007;BMP180;56061;51.748;19.620;2023-10-19T03:24:10;98167.80;;;0.58
69007;BMP180;56061;51.748;19.620;2023-10-19T03:26:50;98166.40;;;0.50
69007;BMP180;56061;51.748;19.620;2023-10-19T03:29:16;98166.60;;;0.50
69007;BMP180;56061;51.748;19.620;2023-10-19T03:31:48;98166.20;;;0.50
69007;BMP180;56061;51.748;19.620;2023-10-19T03:34:14;98167.40;;;0.44
69007;BMP180;56061;51.748;19.620;2023-10-19T03:36:43;98168.40;;;0.40
69007;BMP180;56061;51.748;19.620;2023-10-19T03:39:10;98168.00;;;0.40
69007;BMP180;56061;51.748;19.620;2023-10-19T03:41:41;98166.20;;;0.40
69007;BMP180;56061;51.748;19.620;2023-10-19T03:44:11;98160.60;;;0.48
69007;BMP180;56061;51.748;19.620;2023-10-19T03:47:06;98159.80;;;0.50
69007;BMP180;56061;51.748;19.620;2023-10-19T03:49:38;98152.00;;;0.50
69007;BMP180;56061;51.748;19.620;2023-10-19T03:52:06;98150.00;;;0.50
69007;BMP180;56061;51.748;19.620;2023-10-19T03:54:35;98144.40;;;0.58
69007;BMP180;56061;51.748;19.620;2023-10-19T03:57:10;98138.60;;;0.60
69007;BMP180;56061;51.748;19.620;2023-10-19T03:59:46;98127.80;;;0.60
69007;BMP180;56061;51.748;19.620;2023-10-19T04:02:16;98120.80;;;0.64
69007;BMP180;56061;51.748;19.620;2023-10-19T04:04:43;98109.00;;;0.70
69007;BMP180;56061;51.748;19.620;2023-10-19T04:07:10;98110.40;;;0.70
69007;BMP180;56061;51.748;19.620;2023-10-19T04:09:56;98114.20;;;0.70
69007;BMP180;56061;51.748;19.620;2023-10-19T04:12:25;98105.20;;;0.70
69007;BMP180;56061;51.748;19.620;2023-10-19T04:14:55;98099.40;;;0.70
69007;BMP180;56061;51.748;19.620;2023-10-19T04:17:22;98099.20;;;0.70
69007;BMP180;56061;51.748;19.620;2023-10-19T04:19:50;98099.80;;;0.70
69007;BMP180;56061;51.748;19.620;2023-10-19T04:22:21;98098.40;;;0.70
69007;BMP180;56061;51.748;19.620;2023-10-19T04:24:51;98097.80;;;0.80
69007;BMP180;56061;51.748;19.620;2023-10-19T04:27:17;98093.60;;;0.80
69007;BMP180;56061;51.748;19.620;2023-10-19T04:29:43;98097.60;;;0.90
69007;BMP180;56061;51.748;19.620;2023-10-19T04:32:11;98096.60;;;0.90
69007;BMP180;56061;51.748;19.620;2023-10-19T04:34:39;98082.80;;;1.00
69007;BMP180;56061;51.748;19.620;2023-10-19T04:37:05;98077.80;;;1.00
69007;BMP180;56061;51.748;19.620;2023-10-19T04:39:33;98072.80;;;1.04
69007;BMP180;56061;51.748;19.620;2023-10-19T04:42:00;98072.40;;;1.10
69007;BMP180;56061;51.748;19.620;2023-10-19T04:44:26;98073.60;;;1.10
69007;BMP180;56061;51.748;19.620;2023-10-19T04:46:52;98072.00;;;1.20
69007;BMP180;56061;51.748;19.620;2023-10-19T04:49:18;98065.00;;;1.20
69007;BMP180;56061;51.748;19.620;2023-10-19T04:51:44;98066.80;;;1.30
69007;BMP180;56061;51.748;19.620;2023-10-19T04:54:10;98066.60;;;1.30
69007;BMP180;56061;51.748;19.620;2023-10-19T04:56:36;98067.60;;;1.30
69007;BMP180;56061;51.748;19.620;2023-10-19T04:59:03;98064.40;;;1.30
69007;BMP180;56061;51.748;19.620;2023-10-19T05:01:28;98067.00;;;1.32
69007;BMP180;56061;51.748;19.620;2023-10-19T05:03:54;98071.00;;;1.30
69007;BMP180;56061;51.748;19.620;2023-10-19T05:06:20;98067.40;;;1.30
69007;BMP180;56061;51.748;19.620;2023-10-19T05:08:48;98065.40;;;1.30
69007;BMP180;56061;51.748;19.620;2023-10-19T05:11:13;98064.20;;;1.30
69007;BMP180;56061;51.748;19.620;2023-10-19T05:13:39;98059.40;;;1.30
69007;BMP180;56061;51.748;19.620;2023-10-19T05:16:05;98054.80;;;1.30
69007;BMP180;56061;51.748;19.620;2023-10-19T05:18:33;98051.40;;;1.30
69007;BMP180;56061;51.748;19.620;2023-10-19T05:20:59;98047.00;;;1.40
69007;BMP180;56061;51.748;19.620;2023-10-19T05:23:27;98054.60;;;1.40
69007;BMP180;56061;51.748;19.620;2023-10-19T05:28:25;98053.80;;;1.50
69007;BMP180;56061;51.748;19.620;2023-10-19T05:30:51;98055.20;;;1.50
69007;BMP180;56061;51.748;19.620;2023-10-19T05:33:17;98042.20;;;1.60
69007;BMP180;56061;51.748;19.620;2023-10-19T05:35:47;98042.80;;;1.60
69007;BMP180;56061;51.748;19.620;2023-10-19T05:38:13;98046.40;;;1.60
69007;BMP180;56061;51.748;19.620;2023-10-19T05:40:39;98048.00;;;1.70
69007;BMP180;56061;51.748;19.620;2023-10-19T05:43:08;98045.20;;;1.70
69007;BMP180;56061;51.748;19.620;2023-10-19T05:45:34;98039.80;;;1.70
69007;BMP180;56061;51.748;19.620;2023-10-19T05:48:03;98043.80;;;1.80
69007;BMP180;56061;51.748;19.620;2023-10-19T05:50:35;98043.40;;;1.80
69007;BMP180;56061;51.748;19.620;2023-10-19T05:53:03;98041.00;;;1.90
69007;BMP180;56061;51.748;19.620;2023-10-19T05:55:31;98034.80;;;1.98
69007;BMP180;56061;51.748;19.620;2023-10-19T06:00:24;98034.00;;;2.10
69007;BMP180;56061;51.748;19.620;2023-10-19T06:02:52;98027.40;;;2.20
69007;BMP180;56061;51.748;19.620;2023-10-19T06:05:19;98024.40;;;2.22
69007;BMP180;56061;51.748;19.620;2023-10-19T06:07:48;98027.20;;;2.30
69007;BMP180;56061;51.748;19.620;2023-10-19T06:10:17;98030.00;;;2.40
69007;BMP180;56061;51.748;19.620;2023-10-19T06:12:45;98028.20;;;2.46
69007;BMP180;56061;51.748;19.620;2023-10-19T06:15:12;98024.40;;;2.50
69007;BMP180;56061;51.748;19.620;2023-10-19T06:17:39;98017.60;;;2.60
69007;BMP180;56061;51.748;19.620;2023-10-19T06:20:09;98010.60;;;2.70
69007;BMP180;56061;51.748;19.620;2023-10-19T06:22:46;98002.40;;;2.80
69007;BMP180;56061;51.748;19.620;2023-10-19T06:25:20;97998.80;;;2.90
69007;BMP180;56061;51.748;19.620;2023-10-19T06:27:48;97997.60;;;3.04
69007;BMP180;56061;51.748;19.620;2023-10-19T06:30:15;97992.40;;;3.14
69007;BMP180;56061;51.748;19.620;2023-10-19T06:32:53;97993.80;;;3.20
69007;BMP180;56061;51.748;19.620;2023-10-19T06:35:21;97999.80;;;3.30
69007;BMP180;56061;51.748;19.620;2023-10-19T06:37:48;98003.40;;;3.40
69007;BMP180;56061;51.748;19.620;2023-10-19T06:40:16;98003.20;;;3.48
69007;BMP180;56061;51.748;19.620;2023-10-19T06:42:44;98001.40;;;3.52
69007;BMP180;56061;51.748;19.620;2023-10-19T06:45:12;97999.60;;;3.60
69007;BMP180;56061;51.748;19.620;2023-10-19T06:47:44;98003.40;;;3.70
69007;BMP180;56061;51.748;19.620;2023-10-19T06:50:16;98004.20;;;3.80
69007;BMP180;56061;51.748;19.620;2023-10-19T06:52:44;97991.60;;;3.92
69007;BMP180;56061;51.748;19.620;2023-10-19T06:55:12;97982.20;;;4.00
69007;BMP180;56061;51.748;19.620;2023-10-19T06:57:43;97979.40;;;4.10
69007;BMP180;56061;51.748;19.620;2023-10-19T07:00:14;97973.60;;;4.20
69007;BMP180;56061;51.748;19.620;2023-10-19T07:02:43;97969.40;;;4.30
69007;BMP180;56061;51.748;19.620;2023-10-19T07:05:16;97966.80;;;4.38
69007;BMP180;56061;51.748;19.620;2023-10-19T07:07:48;97959.40;;;4.50
69007;BMP180;56061;51.748;19.620;2023-10-19T07:10:18;97950.20;;;4.50
69007;BMP180;56061;51.748;19.620;2023-10-19T07:12:47;97951.20;;;4.60
69007;BMP180;56061;51.748;19.620;2023-10-19T07:15:14;97950.00;;;4.70
69007;BMP180;56061;51.748;19.620;2023-10-19T07:17:41;97947.60;;;4.74
69007;BMP180;56061;51.748;19.620;2023-10-19T07:20:10;97955.00;;;4.88
69007;BMP180;56061;51.748;19.620;2023-10-19T07:22:52;97948.20;;;5.00
69007;BMP180;56061;51.748;19.620;2023-10-19T07:25:19;97943.80;;;5.10
69007;BMP180;56061;51.748;19.620;2023-10-19T07:27:49;97942.40;;;5.20
69007;BMP180;56061;51.748;19.620;2023-10-19T07:30:17;97936.80;;;5.30
69007;BMP180;56061;51.748;19.620;2023-10-19T07:32:48;97928.60;;;5.40
69007;BMP180;56061;51.748;19.620;2023-10-19T07:35:18;97931.20;;;5.56
69007;BMP180;56061;51.748;19.620;2023-10-19T07:37:45;97922.40;;;5.70
69007;BMP180;56061;51.748;19.620;2023-10-19T07:40:11;97925.60;;;5.80
69007;BMP180;56061;51.748;19.620;2023-10-19T07:42:40;97922.60;;;5.90
69007;BMP180;56061;51.748;19.620;2023-10-19T07:45:08;97925.80;;;6.06
69007;BMP180;56061;51.748;19.620;2023-10-19T07:47:38;97925.80;;;6.20
69007;BMP180;56061;51.748;19.620;2023-10-19T07:50:09;97916.60;;;6.40
69007;BMP180;56061;51.748;19.620;2023-10-19T07:52:51;97911.00;;;6.60
69007;BMP180;56061;51.748;19.620;2023-10-19T07:55:19;97918.00;;;6.70
69007;BMP180;56061;51.748;19.620;2023-10-19T07:57:45;97913.80;;;6.82
69007;BMP180;56061;51.748;19.620;2023-10-19T08:00:16;97912.00;;;7.00
69007;BMP180;56061;51.748;19.620;2023-10-19T08:02:43;97901.40;;;7.10
69007;BMP180;56061;51.748;19.620;2023-10-19T08:05:13;97894.00;;;7.24
69007;BMP180;56061;51.748;19.620;2023-10-19T08:07:40;97893.60;;;7.40
69007;BMP180;56061;51.748;19.620;2023-10-19T08:10:10;97895.60;;;7.50
69007;BMP180;56061;51.748;19.620;2023-10-19T08:12:39;97886.60;;;7.60
69007;BMP180;56061;51.748;19.620;2023-10-19T08:15:11;97877.00;;;7.70
69007;BMP180;56061;51.748;19.620;2023-10-19T08:17:38;97867.20;;;7.80
69007;BMP180;56061;51.748;19.620;2023-10-19T08:20:11;97863.20;;;7.82
69007;BMP180;56061;51.748;19.620;2023-10-19T08:22:54;97860.00;;;7.90
69007;BMP180;56061;51.748;19.620;2023-10-19T08:25:23;97849.60;;;8.00
69007;BMP180;56061;51.748;19.620;2023-10-19T08:27:50;97841.40;;;8.10
69007;BMP180;56061;51.748;19.620;2023-10-19T08:30:19;97836.80;;;8.10
69007;BMP180;56061;51.748;19.620;2023-10-19T08:32:50;97827.40;;;8.12
69007;BMP180;56061;51.748;19.620;2023-10-19T08:35:19;97821.20;;;8.20
69007;BMP180;56061;51.748;19.620;2023-10-19T08:37:53;97817.60;;;8.30
69007;BMP180;56061;51.748;19.620;2023-10-19T08:40:20;97819.60;;;8.30
69007;BMP180;56061;51.748;19.620;2023-10-19T08:42:49;97811.80;;;8.38
69007;BMP180;56061;51.748;19.620;2023-10-19T08:45:15;97812.40;;;8.40
69007;BMP180;56061;51.748;19.620;2023-10-19T08:50:24;97795.60;;;8.50
69007;BMP180;56061;51.748;19.620;2023-10-19T08:52:54;97789.00;;;8.52
69007;BMP180;56061;51.748;19.620;2023-10-19T08:55:20;97792.00;;;8.60
69007;BMP180;56061;51.748;19.620;2023-10-19T08:57:58;97793.60;;;8.60
69007;BMP180;56061;51.748;19.620;2023-10-19T09:00:24;97795.80;;;8.70
69007;BMP180;56061;51.748;19.620;2023-10-19T09:02:56;97789.20;;;8.72
69007;BMP180;56061;51.748;19.620;2023-10-19T09:05:22;97775.20;;;8.88
69007;BMP180;56061;51.748;19.620;2023-10-19T09:07:49;97770.80;;;9.00
69007;BMP180;56061;51.748;19.620;2023-10-19T09:10:28;97762.20;;;9.10
69007;BMP180;56061;51.748;19.620;2023-10-19T09:15:25;97753.20;;;9.30
69007;BMP180;56061;51.748;19.620;2023-10-19T09:17:52;97746.40;;;9.30
69007;BMP180;56061;51.748;19.620;2023-10-19T09:20:21;97740.20;;;9.30
69007;BMP180;56061;51.748;19.620;2023-10-19T09:22:56;97737.80;;;9.40
69007;BMP180;56061;51.748;19.620;2023-10-19T09:25:24;97733.20;;;9.50
69007;BMP180;56061;51.748;19.620;2023-10-19T09:27:50;97732.40;;;9.60
69007;BMP180;56061;51.748;19.620;2023-10-19T09:30:19;97728.80;;;9.70
69007;BMP180;56061;51.748;19.620;2023-10-19T09:32:47;97727.20;;;9.70
69007;BMP180;56061;51.748;19.620;2023-10-19T09:35:17;97721.60;;;9.80
69007;BMP180;56061;51.748;19.620;2023-10-19T09:37:45;97717.40;;;9.80
69007;BMP180;56061;51.748;19.620;2023-10-19T09:40:11;97721.80;;;9.80
69007;BMP180;56061;51.748;19.620;2023-10-19T09:42:43;97718.00;;;9.80
69007;BMP180;56061;51.748;19.620;2023-10-19T09:45:19;97717.20;;;9.84
69007;BMP180;56061;51.748;19.620;2023-10-19T09:47:50;97718.40;;;9.90
69007;BMP180;56061;51.748;19.620;2023-10-19T09:50:17;97722.40;;;9.90
69007;BMP180;56061;51.748;19.620;2023-10-19T09:52:43;97736.00;;;10.00
69007;BMP180;56061;51.748;19.620;2023-10-19T09:55:17;97730.40;;;10.00
69007;BMP180;56061;51.748;19.620;2023-10-19T10:00:29;97726.00;;;10.00
69007;BMP180;56061;51.748;19.620;2023-10-19T10:02:58;97728.40;;;10.00
69007;BMP180;56061;51.748;19.620;2023-10-19T10:05:53;97726.60;;;10.00
69007;BMP180;56061;51.748;19.620;2023-10-19T10:10:48;97733.40;;;9.90
69007;BMP180;56061;51.748;19.620;2023-10-19T10:15:53;97716.60;;;10.06
69007;BMP180;56061;51.748;19.620;2023-10-19T10:18:20;97719.60;;;10.10
69007;BMP180;56061;51.748;19.620;2023-10-19T10:23:27;97713.60;;;10.00
69007;BMP180;56061;51.748;19.620;2023-10-19T10:25:58;97710.00;;;10.00
69007;BMP180;56061;51.748;19.620;2023-10-19T10:28:24;97700.20;;;10.00
69007;BMP180;56061;51.748;19.620;2023-10-19T10:33:47;97687.20;;;10.00
69007;BMP180;56061;51.748;19.620;2023-10-19T10:36:15;97677.20;;;9.94
69007;BMP180;56061;51.748;19.620;2023-10-19T10:38:44;97677.00;;;9.80
69007;BMP180;56061;51.748;19.620;2023-10-19T10:41:10;97675.40;;;9.70
69007;BMP180;56061;51.748;19.620;2023-10-19T10:43:54;97672.00;;;9.60
69007;BMP180;56061;51.748;19.620;2023-10-19T10:46:22;97670.80;;;9.42
69007;BMP180;56061;51.748;19.620;2023-10-19T10:48:48;97668.00;;;9.36
69007;BMP180;56061;51.748;19.620;2023-10-19T10:51:26;97667.40;;;9.30
69007;BMP180;56061;51.748;19.620;2023-10-19T10:53:56;97655.40;;;9.30
69007;BMP180;56061;51.748;19.620;2023-10-19T10:56:24;97652.80;;;9.30
69007;BMP180;56061;51.748;19.620;2023-10-19T10:58:50;97643.20;;;9.40
69007;BMP180;56061;51.748;19.620;2023-10-19T11:01:32;97644.00;;;9.40
69007;BMP180;56061;51.748;19.620;2023-10-19T11:04:11;97636.00;;;9.48
69007;BMP180;56061;51.748;19.620;2023-10-19T11:06:52;97626.00;;;9.50
69007;BMP180;56061;51.748;19.620;2023-10-19T11:09:21;97623.80;;;9.40
69007;BMP180;56061;51.748;19.620;2023-10-19T11:11:47;97618.40;;;9.40
69007;BMP180;56061;51.748;19.620;2023-10-19T11:14:15;97617.20;;;9.40
69007;BMP180;56061;51.748;19.620;2023-10-19T11:16:41;97616.80;;;9.40
69007;BMP180;56061;51.748;19.620;2023-10-19T11:19:09;97616.00;;;9.40
69007;BMP180;56061;51.748;19.620;2023-10-19T11:21:36;97616.80;;;9.40
69007;BMP180;56061;51.748;19.620;2023-10-19T11:24:02;97614.80;;;9.40
69007;BMP180;56061;51.748;19.620;2023-10-19T11:26:28;97615.80;;;9.40
69007;BMP180;56061;51.748;19.620;2023-10-19T11:31:25;97620.00;;;9.40
69007;BMP180;56061;51.748;19.620;2023-10-19T11:33:54;97627.60;;;9.50
69007;BMP180;56061;51.748;19.620;2023-10-19T11:36:24;97625.40;;;9.50
69007;BMP180;56061;51.748;19.620;2023-10-19T11:38:52;97621.60;;;9.50
69007;BMP180;56061;51.748;19.620;2023-10-19T11:41:18;97617.60;;;9.50
69007;BMP180;56061;51.748;19.620;2023-10-19T11:43:47;97616.00;;;9.50
69007;BMP180;56061;51.748;19.620;2023-10-19T11:46:14;97620.80;;;9.40
69007;BMP180;56061;51.748;19.620;2023-10-19T11:48:41;97617.00;;;9.40
69007;BMP180;56061;51.748;19.620;2023-10-19T11:51:09;97612.20;;;9.40
69007;BMP180;56061;51.748;19.620;2023-10-19T11:53:38;97617.60;;;9.30
69007;BMP180;56061;51.748;19.620;2023-10-19T11:56:10;97605.60;;;9.30
69007;BMP180;56061;51.748;19.620;2023-10-19T11:58:39;97606.60;;;9.30
69007;BMP180;56061;51.748;19.620;2023-10-19T12:01:09;97603.60;;;9.40
69007;BMP180;56061;51.748;19.620;2023-10-19T12:03:38;97605.80;;;9.40
69007;BMP180;56061;51.748;19.620;2023-10-19T12:06:10;97607.40;;;9.40
69007;BMP180;56061;51.748;19.620;2023-10-19T12:08:37;97606.20;;;9.40
69007;BMP180;56061;51.748;19.620;2023-10-19T12:11:04;97604.00;;;9.40
69007;BMP180;56061;51.748;19.620;2023-10-19T12:13:36;97606.60;;;9.40
69007;BMP180;56061;51.748;19.620;2023-10-19T12:16:03;97609.00;;;9.40
69007;BMP180;56061;51.748;19.620;2023-10-19T12:18:30;97608.40;;;9.30
69007;BMP180;56061;51.748;19.620;2023-10-19T12:20:56;97610.00;;;9.30
69007;BMP180;56061;51.748;19.620;2023-10-19T12:23:26;97609.80;;;9.30
69007;BMP180;56061;51.748;19.620;2023-10-19T12:25:52;97612.20;;;9.30
69007;BMP180;56061;51.748;19.620;2023-10-19T12:28:23;97603.20;;;9.30
69007;BMP180;56061;51.748;19.620;2023-10-19T12:30:50;97605.20;;;9.30
69007;BMP180;56061;51.748;19.620;2023-10-19T12:33:16;97606.60;;;9.38
69007;BMP180;56061;51.748;19.620;2023-10-19T12:35:42;97607.40;;;9.30
69007;BMP180;56061;51.748;19.620;2023-10-19T12:38:26;97607.80;;;9.30
69007;BMP180;56061;51.748;19.620;2023-10-19T12:40:52;97595.00;;;9.30
69007;BMP180;56061;51.748;19.620;2023-10-19T12:43:20;97588.20;;;9.30
69007;BMP180;56061;51.748;19.620;2023-10-19T12:45:48;97589.60;;;9.30
69007;BMP180;56061;51.748;19.620;2023-10-19T12:48:20;97585.00;;;9.20
69007;BMP180;56061;51.748;19.620;2023-10-19T12:50:47;97585.00;;;9.20
69007;BMP180;56061;51.748;19.620;2023-10-19T12:53:13;97580.40;;;9.20
69007;BMP180;56061;51.748;19.620;2023-10-19T12:55:39;97579.80;;;9.20
69007;BMP180;56061;51.748;19.620;2023-10-19T12:58:06;97578.00;;;9.20
69007;BMP180;56061;51.748;19.620;2023-10-19T13:00:40;97578.60;;;9.10
69007;BMP180;56061;51.748;19.620;2023-10-19T13:03:10;97574.40;;;9.00
69007;BMP180;56061;51.748;19.620;2023-10-19T13:05:40;97572.80;;;8.90
69007;BMP180;56061;51.748;19.620;2023-10-19T13:08:14;97568.60;;;8.80
69007;BMP180;56061;51.748;19.620;2023-10-19T13:10:47;97556.00;;;8.80
69007;BMP180;56061;51.748;19.620;2023-10-19T13:13:15;97549.20;;;8.80
69007;BMP180;56061;51.748;19.620;2023-10-19T13:15:45;97550.60;;;8.80
69007;BMP180;56061;51.748;19.620;2023-10-19T13:18:12;97541.20;;;8.80
69007;BMP180;56061;51.748;19.620;2023-10-19T13:20:39;97534.40;;;8.80
69007;BMP180;56061;51.748;19.620;2023-10-19T13:23:10;97532.60;;;8.80
69007;BMP180;56061;51.748;19.620;2023-10-19T13:25:41;97520.40;;;8.80
69007;BMP180;56061;51.748;19.620;2023-10-19T13:28:13;97525.60;;;8.74
69007;BMP180;56061;51.748;19.620;2023-10-19T13:30:42;97526.00;;;8.70
69007;BMP180;56061;51.748;19.620;2023-10-19T13:33:10;97521.40;;;8.68
69007;BMP180;56061;51.748;19.620;2023-10-19T13:35:37;97517.80;;;8.60
69007;BMP180;56061;51.748;19.620;2023-10-19T13:38:05;97515.40;;;8.60
69007;BMP180;56061;51.748;19.620;2023-10-19T13:40:32;97519.40;;;8.60
69007;BMP180;56061;51.748;19.620;2023-10-19T13:42:59;97512.00;;;8.50
69007;BMP180;56061;51.748;19.620;2023-10-19T13:45:25;97498.00;;;8.40
69007;BMP180;56061;51.748;19.620;2023-10-19T13:47:51;97489.00;;;8.32
69007;BMP180;56061;51.748;19.620;2023-10-19T13:50:24;97484.40;;;8.30
69007;BMP180;56061;51.748;19.620;2023-10-19T13:52:53;97481.40;;;8.30
69007;BMP180;56061;51.748;19.620;2023-10-19T13:55:20;97471.20;;;8.30
69007;BMP180;56061;51.748;19.620;2023-10-19T13:57:47;97468.60;;;8.24
69007;BMP180;56061;51.748;19.620;2023-10-19T14:00:15;97471.00;;;8.20
69007;BMP180;56061;51.748;19.620;2023-10-19T14:02:46;97483.40;;;8.20
69007;BMP180;56061;51.748;19.620;2023-10-19T14:05:15;97483.20;;;8.10
69007;BMP180;56061;51.748;19.620;2023-10-19T14:07:41;97476.80;;;8.10
69007;BMP180;56061;51.748;19.620;2023-10-19T14:10:08;97466.20;;;8.10
69007;BMP180;56061;51.748;19.620;2023-10-19T14:12:38;97453.80;;;8.10
69007;BMP180;56061;51.748;19.620;2023-10-19T14:15:13;97442.20;;;8.10
69007;BMP180;56061;51.748;19.620;2023-10-19T14:17:39;97432.00;;;8.00
69007;BMP180;56061;51.748;19.620;2023-10-19T14:20:06;97415.00;;;8.00
69007;BMP180;56061;51.748;19.620;2023-10-19T14:22:49;97417.80;;;8.00
69007;BMP180;56061;51.748;19.620;2023-10-19T14:25:15;97418.00;;;8.00
69007;BMP180;56061;51.748;19.620;2023-10-19T14:27:44;97421.80;;;7.90
69007;BMP180;56061;51.748;19.620;2023-10-19T14:30:22;97422.40;;;7.90
69007;BMP180;56061;51.748;19.620;2023-10-19T14:32:49;97426.20;;;7.90
69007;BMP180;56061;51.748;19.620;2023-10-19T14:35:19;97422.80;;;7.88
69007;BMP180;56061;51.748;19.620;2023-10-19T14:37:48;97432.00;;;7.90
69007;BMP180;56061;51.748;19.620;2023-10-19T14:40:20;97440.40;;;7.90
69007;BMP180;56061;51.748;19.620;2023-10-19T14:43:10;97444.00;;;7.90
69007;BMP180;56061;51.748;19.620;2023-10-19T14:45:36;97441.80;;;7.94
69007;BMP180;56061;51.748;19.620;2023-10-19T14:48:03;97442.60;;;8.00
69007;BMP180;56061;51.748;19.620;2023-10-19T14:50:30;97443.00;;;8.00
69007;BMP180;56061;51.748;19.620;2023-10-19T14:52:56;97443.00;;;8.00
69007;BMP180;56061;51.748;19.620;2023-10-19T14:55:23;97441.60;;;8.00